sensor_id;sensor_type;location;lat;lon;timestamp;P1;durP1;ratioP1;P2;durP2;ratioP2
8333;SDS011;4204;43.004;23.052;2023-06-26T00:02:23;27.53;;;19.40;;
8333;SDS011;4204;43.004;23.052;2023-06-26T00:04:51;25.50;;;19.40;;
8333;SDS011;4204;43.004;23.052;2023-06-26T00:07:19;26.17;;;20.67;;
8333;SDS011;4204;43.004;23.052;2023-06-26T00:09:48;25.83;;;20.13;;
8333;SDS011;4204;43.004;23.052;2023-06-26T00:12:16;24.07;;;19.87;;
8333;SDS011;4204;43.004;23.052;2023-06-26T00:14:44;26.37;;;20.40;;
8333;SDS011;4204;43.004;23.052;2023-06-26T00:17:12;25.20;;;19.27;;
8333;SDS011;4204;43.004;23.052;2023-06-26T00:19:39;25.53;;;19.60;;
8333;SDS011;4204;43.004;23.052;2023-06-26T00:22:07;23.40;;;19.27;;
8333;SDS011;4204;43.004;23.052;2023-06-26T00:24:35;27.47;;;20.63;;
8333;SDS011;4204;43.004;23.052;2023-06-26T00:27:04;25.40;;;19.33;;
8333;SDS011;4204;43.004;23.052;2023-06-26T00:29:32;23.87;;;19.03;;
8333;SDS011;4204;43.004;23.052;2023-06-26T00:31:59;23.73;;;18.37;;
8333;SDS011;4204;43.004;23.052;2023-06-26T00:34:27;24.00;;;17.87;;
8333;SDS011;4204;43.004;23.052;2023-06-26T00:36:55;21.43;;;18.07;;
8333;SDS011;4204;43.004;23.052;2023-06-26T00:39:23;23.73;;;18.43;;
8333;SDS011;4204;43.004;23.052;2023-06-26T00:41:52;22.33;;;17.20;;
8333;SDS011;4204;43.004;23.052;2023-06-26T00:44:22;22.87;;;18.10;;
8333;SDS011;4204;43.004;23.052;2023-06-26T00:46:50;21.83;;;17.83;;
8333;SDS011;4204;43.004;23.052;2023-06-26T00:49:18;22.60;;;18.63;;
8333;SDS011;4204;43.004;23.052;2023-06-26T00:51:46;24.47;;;17.67;;
8333;SDS011;4204;43.004;23.052;2023-06-26T00:54:14;22.80;;;17.93;;
8333;SDS011;4204;43.004;23.052;2023-06-26T00:56:46;21.30;;;17.83;;
8333;SDS011;4204;43.004;23.052;2023-06-26T00:59:14;22.80;;;17.47;;
8333;SDS011;4204;43.004;23.052;2023-06-26T01:01:43;27.97;;;18.27;;
8333;SDS011;4204;43.004;23.052;2023-06-26T01:04:11;22.90;;;17.37;;
8333;SDS011;4204;43.004;23.052;2023-06-26T01:06:43;21.30;;;17.13;;
8333;SDS011;4204;43.004;23.052;2023-06-26T01:09:15;20.93;;;16.60;;
8333;SDS011;4204;43.004;23.052;2023-06-26T01:11:44;19.27;;;15.63;;
8333;SDS011;4204;43.004;23.052;2023-06-26T01:14:12;21.00;;;16.63;;
8333;SDS011;4204;43.004;23.052;2023-06-26T01:16:40;20.90;;;16.37;;
8333;SDS011;4204;43.004;23.052;2023-06-26T01:19:15;19.57;;;15.00;;
8333;SDS011;4204;43.004;23.052;2023-06-26T01:21:51;23.53;;;16.17;;
8333;SDS011;4204;43.004;23.052;2023-06-26T01:24:25;25.43;;;17.33;;
8333;SDS011;4204;43.004;23.052;2023-06-26T01:27:00;24.80;;;17.73;;
8333;SDS011;4204;43.004;23.052;2023-06-26T01:29:30;25.77;;;18.67;;
8333;SDS011;4204;43.004;23.052;2023-06-26T01:31:59;22.83;;;18.30;;
8333;SDS011;4204;43.004;23.052;2023-06-26T01:34:28;22.37;;;17.07;;
8333;SDS011;4204;43.004;23.052;2023-06-26T01:36:56;23.57;;;16.90;;
8333;SDS011;4204;43.004;23.052;2023-06-26T01:39:25;20.10;;;15.83;;
8333;SDS011;4204;43.004;23.052;2023-06-26T01:41:53;21.63;;;15.77;;
8333;SDS011;4204;43.004;23.052;2023-06-26T01:44:25;20.97;;;16.17;;
8333;SDS011;4204;43.004;23.052;2023-06-26T01:46:58;18.93;;;16.03;;
8333;SDS011;4204;43.004;23.052;2023-06-26T01:49:39;21.47;;;16.50;;
8333;SDS011;4204;43.004;23.052;2023-06-26T01:52:14;21.73;;;16.23;;
8333;SDS011;4204;43.004;23.052;2023-06-26T01:54:54;19.27;;;15.77;;
8333;SDS011;4204;43.004;23.052;2023-06-26T01:57:26;25.13;;;17.33;;
8333;SDS011;4204;43.004;23.052;2023-06-26T01:59:56;20.80;;;15.67;;
8333;SDS011;4204;43.004;23.052;2023-06-26T02:02:27;20.20;;;16.63;;
8333;SDS011;4204;43.004;23.052;2023-06-26T02:04:56;19.90;;;16.47;;
8333;SDS011;4204;43.004;23.052;2023-06-26T02:07:23;23.87;;;17.23;;
8333;SDS011;4204;43.004;23.052;2023-06-26T02:09:51;20.80;;;17.33;;
8333;SDS011;4204;43.004;23.052;2023-06-26T02:12:19;20.80;;;16.47;;
8333;SDS011;4204;43.004;23.052;2023-06-26T02:14:47;21.97;;;16.17;;
8333;SDS011;4204;43.004;23.052;2023-06-26T02:17:18;19.13;;;15.67;;
8333;SDS011;4204;43.004;23.052;2023-06-26T02:19:46;20.70;;;15.80;;
8333;SDS011;4204;43.004;23.052;2023-06-26T02:22:14;20.77;;;16.90;;
8333;SDS011;4204;43.004;23.052;2023-06-26T02:24:42;21.03;;;17.43;;
8333;SDS011;4204;43.004;23.052;2023-06-26T02:27:10;21.77;;;17.27;;
8333;SDS011;4204;43.004;23.052;2023-06-26T02:29:38;19.53;;;17.43;;
8333;SDS011;4204;43.004;23.052;2023-06-26T02:32:08;21.77;;;17.37;;
8333;SDS011;4204;43.004;23.052;2023-06-26T02:34:37;21.37;;;18.20;;
8333;SDS011;4204;43.004;23.052;2023-06-26T02:37:05;19.90;;;16.57;;
8333;SDS011;4204;43.004;23.052;2023-06-26T02:39:34;20.37;;;17.30;;
8333;SDS011;4204;43.004;23.052;2023-06-26T02:42:01;20.30;;;16.73;;
8333;SDS011;4204;43.004;23.052;2023-06-26T02:44:30;19.70;;;16.30;;
8333;SDS011;4204;43.004;23.052;2023-06-26T02:46:58;20.03;;;17.40;;
8333;SDS011;4204;43.004;23.052;2023-06-26T02:49:26;21.57;;;16.87;;
8333;SDS011;4204;43.004;23.052;2023-06-26T02:51:55;19.00;;;16.33;;
8333;SDS011;4204;43.004;23.052;2023-06-26T02:54:27;19.57;;;15.57;;
8333;SDS011;4204;43.004;23.052;2023-06-26T02:57:00;19.07;;;16.43;;
8333;SDS011;4204;43.004;23.052;2023-06-26T02:59:30;19.07;;;15.73;;
8333;SDS011;4204;43.004;23.052;2023-06-26T03:01:58;19.37;;;15.90;;
8333;SDS011;4204;43.004;23.052;2023-06-26T03:04:31;19.53;;;16.27;;
8333;SDS011;4204;43.004;23.052;2023-06-26T03:07:04;20.83;;;16.57;;
8333;SDS011;4204;43.004;23.052;2023-06-26T03:09:32;17.53;;;15.63;;
8333;SDS011;4204;43.004;23.052;2023-06-26T03:12:00;17.17;;;15.30;;
8333;SDS011;4204;43.004;23.052;2023-06-26T03:14:28;20.13;;;15.70;;
8333;SDS011;4204;43.004;23.052;2023-06-26T03:16:57;18.70;;;16.03;;
8333;SDS011;4204;43.004;23.052;2023-06-26T03:19:29;18.30;;;16.40;;
8333;SDS011;4204;43.004;23.052;2023-06-26T03:22:20;21.17;;;16.47;;
8333;SDS011;4204;43.004;23.052;2023-06-26T03:24:48;22.33;;;17.07;;
8333;SDS011;4204;43.004;23.052;2023-06-26T03:27:16;19.10;;;15.83;;
8333;SDS011;4204;43.004;23.052;2023-06-26T03:29:44;21.30;;;16.33;;
8333;SDS011;4204;43.004;23.052;2023-06-26T03:32:12;20.00;;;17.20;;
8333;SDS011;4204;43.004;23.052;2023-06-26T03:34:40;23.10;;;17.43;;
8333;SDS011;4204;43.004;23.052;2023-06-26T03:37:07;21.20;;;16.97;;
8333;SDS011;4204;43.004;23.052;2023-06-26T03:39:37;21.43;;;17.47;;
8333;SDS011;4204;43.004;23.052;2023-06-26T03:42:05;19.93;;;16.50;;
8333;SDS011;4204;43.004;23.052;2023-06-26T03:44:33;19.87;;;16.80;;
8333;SDS011;4204;43.004;23.052;2023-06-26T03:47:01;22.07;;;17.63;;
8333;SDS011;4204;43.004;23.052;2023-06-26T03:49:29;21.37;;;16.93;;
8333;SDS011;4204;43.004;23.052;2023-06-26T03:51:57;20.03;;;16.27;;
8333;SDS011;4204;43.004;23.052;2023-06-26T03:54:24;19.33;;;16.33;;
8333;SDS011;4204;43.004;23.052;2023-06-26T03:56:53;18.37;;;15.53;;
8333;SDS011;4204;43.004;23.052;2023-06-26T03:59:21;24.17;;;16.77;;
8333;SDS011;4204;43.004;23.052;2023-06-26T04:01:49;21.53;;;17.60;;
8333;SDS011;4204;43.004;23.052;2023-06-26T04:04:17;21.87;;;17.27;;
8333;SDS011;4204;43.004;23.052;2023-06-26T04:06:45;24.07;;;17.57;;
8333;SDS011;4204;43.004;23.052;2023-06-26T04:09:13;19.90;;;17.20;;
8333;SDS011;4204;43.004;23.052;2023-06-26T04:11:40;22.27;;;17.83;;
8333;SDS011;4204;43.004;23.052;2023-06-26T04:14:09;25.70;;;21.43;;
8333;SDS011;4204;43.004;23.052;2023-06-26T04:16:37;22.83;;;19.53;;
8333;SDS011;4204;43.004;23.052;2023-06-26T04:19:05;23.20;;;20.80;;
8333;SDS011;4204;43.004;23.052;2023-06-26T04:21:33;26.30;;;23.60;;
8333;SDS011;4204;43.004;23.052;2023-06-26T04:24:01;23.93;;;21.43;;
8333;SDS011;4204;43.004;23.052;2023-06-26T04:26:29;26.20;;;23.43;;
8333;SDS011;4204;43.004;23.052;2023-06-26T04:28:57;26.93;;;23.97;;
8333;SDS011;4204;43.004;23.052;2023-06-26T04:31:26;25.63;;;21.90;;
8333;SDS011;4204;43.004;23.052;2023-06-26T04:33:54;22.83;;;20.40;;
8333;SDS011;4204;43.004;23.052;2023-06-26T04:36:22;21.93;;;19.40;;
8333;SDS011;4204;43.004;23.052;2023-06-26T04:38:54;21.20;;;19.00;;
8333;SDS011;4204;43.004;23.052;2023-06-26T04:41:22;24.10;;;19.80;;
8333;SDS011;4204;43.004;23.052;2023-06-26T04:43:50;22.43;;;20.07;;
8333;SDS011;4204;43.004;23.052;2023-06-26T04:46:17;23.83;;;19.50;;
8333;SDS011;4204;43.004;23.052;2023-06-26T04:48:46;21.70;;;19.27;;
8333;SDS011;4204;43.004;23.052;2023-06-26T04:51:14;20.10;;;18.03;;
8333;SDS011;4204;43.004;23.052;2023-06-26T04:53:42;20.67;;;18.47;;
8333;SDS011;4204;43.004;23.052;2023-06-26T04:56:10;22.07;;;18.97;;
8333;SDS011;4204;43.004;23.052;2023-06-26T04:58:37;22.13;;;19.57;;
8333;SDS011;4204;43.004;23.052;2023-06-26T05:01:05;21.93;;;18.77;;
8333;SDS011;4204;43.004;23.052;2023-06-26T05:03:34;19.87;;;17.40;;
8333;SDS011;4204;43.004;23.052;2023-06-26T05:06:04;19.77;;;17.67;;
8333;SDS011;4204;43.004;23.052;2023-06-26T05:08:32;21.33;;;18.37;;
8333;SDS011;4204;43.004;23.052;2023-06-26T05:11:00;21.87;;;19.20;;
8333;SDS011;4204;43.004;23.052;2023-06-26T05:13:27;22.17;;;19.47;;
8333;SDS011;4204;43.004;23.052;2023-06-26T05:15:55;24.40;;;20.30;;
8333;SDS011;4204;43.004;23.052;2023-06-26T05:18:23;23.73;;;21.20;;
8333;SDS011;4204;43.004;23.052;2023-06-26T05:20:51;27.47;;;20.40;;
8333;SDS011;4204;43.004;23.052;2023-06-26T05:23:20;27.43;;;22.80;;
8333;SDS011;4204;43.004;23.052;2023-06-26T05:25:49;40.40;;;27.67;;
8333;SDS011;4204;43.004;23.052;2023-06-26T05:28:17;30.83;;;25.83;;
8333;SDS011;4204;43.004;23.052;2023-06-26T05:30:46;32.43;;;24.47;;
8333;SDS011;4204;43.004;23.052;2023-06-26T05:33:14;24.47;;;21.00;;
8333;SDS011;4204;43.004;23.052;2023-06-26T05:35:45;25.30;;;21.63;;
8333;SDS011;4204;43.004;23.052;2023-06-26T05:38:13;23.67;;;20.27;;
8333;SDS011;4204;43.004;23.052;2023-06-26T05:40:43;28.13;;;22.60;;
8333;SDS011;4204;43.004;23.052;2023-06-26T05:43:11;25.57;;;21.53;;
8333;SDS011;4204;43.004;23.052;2023-06-26T05:45:39;24.60;;;21.17;;
8333;SDS011;4204;43.004;23.052;2023-06-26T05:48:07;25.10;;;20.53;;
8333;SDS011;4204;43.004;23.052;2023-06-26T05:50:36;23.17;;;19.47;;
8333;SDS011;4204;43.004;23.052;2023-06-26T05:53:04;23.97;;;20.00;;
8333;SDS011;4204;43.004;23.052;2023-06-26T05:55:32;21.63;;;19.20;;
8333;SDS011;4204;43.004;23.052;2023-06-26T05:58:02;25.33;;;20.43;;
8333;SDS011;4204;43.004;23.052;2023-06-26T06:00:30;21.90;;;18.97;;
8333;SDS011;4204;43.004;23.052;2023-06-26T06:02:59;21.33;;;19.03;;
8333;SDS011;4204;43.004;23.052;2023-06-26T06:05:26;21.90;;;19.57;;
8333;SDS011;4204;43.004;23.052;2023-06-26T06:07:55;22.97;;;19.53;;
8333;SDS011;4204;43.004;23.052;2023-06-26T06:10:23;23.50;;;20.70;;
8333;SDS011;4204;43.004;23.052;2023-06-26T06:12:51;22.67;;;20.17;;
8333;SDS011;4204;43.004;23.052;2023-06-26T06:15:21;21.27;;;19.10;;
8333;SDS011;4204;43.004;23.052;2023-06-26T06:17:49;22.20;;;18.27;;
8333;SDS011;4204;43.004;23.052;2023-06-26T06:20:17;20.33;;;18.27;;
8333;SDS011;4204;43.004;23.052;2023-06-26T06:22:45;19.83;;;17.80;;
8333;SDS011;4204;43.004;23.052;2023-06-26T06:25:14;19.53;;;17.37;;
8333;SDS011;4204;43.004;23.052;2023-06-26T06:27:42;23.77;;;19.17;;
8333;SDS011;4204;43.004;23.052;2023-06-26T06:30:10;20.33;;;17.87;;
8333;SDS011;4204;43.004;23.052;2023-06-26T06:32:40;20.83;;;18.60;;
8333;SDS011;4204;43.004;23.052;2023-06-26T06:35:08;21.50;;;17.87;;
8333;SDS011;4204;43.004;23.052;2023-06-26T06:37:36;20.63;;;17.33;;
8333;SDS011;4204;43.004;23.052;2023-06-26T06:40:04;19.23;;;16.97;;
8333;SDS011;4204;43.004;23.052;2023-06-26T06:42:34;18.53;;;16.63;;
8333;SDS011;4204;43.004;23.052;2023-06-26T06:45:02;19.53;;;16.63;;
8333;SDS011;4204;43.004;23.052;2023-06-26T06:47:30;19.67;;;17.57;;
8333;SDS011;4204;43.004;23.052;2023-06-26T06:50:00;19.37;;;17.37;;
8333;SDS011;4204;43.004;23.052;2023-06-26T06:52:34;20.43;;;18.30;;
8333;SDS011;4204;43.004;23.052;2023-06-26T06:55:03;19.20;;;17.10;;
8333;SDS011;4204;43.004;23.052;2023-06-26T06:57:34;20.23;;;18.17;;
8333;SDS011;4204;43.004;23.052;2023-06-26T07:00:04;18.17;;;15.97;;
8333;SDS011;4204;43.004;23.052;2023-06-26T07:02:34;18.47;;;16.13;;
8333;SDS011;4204;43.004;23.052;2023-06-26T07:05:04;17.53;;;14.80;;
8333;SDS011;4204;43.004;23.052;2023-06-26T07:07:33;17.33;;;15.53;;
8333;SDS011;4204;43.004;23.052;2023-06-26T07:10:03;17.83;;;15.13;;
8333;SDS011;4204;43.004;23.052;2023-06-26T07:12:32;15.73;;;14.23;;
8333;SDS011;4204;43.004;23.052;2023-06-26T07:15:00;20.07;;;16.60;;
8333;SDS011;4204;43.004;23.052;2023-06-26T07:17:30;17.43;;;15.57;;
8333;SDS011;4204;43.004;23.052;2023-06-26T07:19:58;16.57;;;14.87;;
8333;SDS011;4204;43.004;23.052;2023-06-26T07:22:28;16.67;;;14.97;;
8333;SDS011;4204;43.004;23.052;2023-06-26T07:24:56;16.10;;;14.50;;
8333;SDS011;4204;43.004;23.052;2023-06-26T07:27:24;16.60;;;13.43;;
8333;SDS011;4204;43.004;23.052;2023-06-26T07:29:52;14.87;;;12.80;;
8333;SDS011;4204;43.004;23.052;2023-06-26T07:32:19;14.50;;;12.00;;
8333;SDS011;4204;43.004;23.052;2023-06-26T07:34:47;17.03;;;13.90;;
8333;SDS011;4204;43.004;23.052;2023-06-26T07:37:15;15.63;;;13.10;;
8333;SDS011;4204;43.004;23.052;2023-06-26T07:39:44;14.70;;;12.50;;
8333;SDS011;4204;43.004;23.052;2023-06-26T07:42:12;13.47;;;12.03;;
8333;SDS011;4204;43.004;23.052;2023-06-26T07:44:40;12.07;;;10.70;;
8333;SDS011;4204;43.004;23.052;2023-06-26T07:47:09;12.17;;;10.63;;
8333;SDS011;4204;43.004;23.052;2023-06-26T07:49:37;12.37;;;11.07;;
8333;SDS011;4204;43.004;23.052;2023-06-26T07:52:06;13.50;;;9.57;;
8333;SDS011;4204;43.004;23.052;2023-06-26T07:54:36;10.20;;;9.17;;
8333;SDS011;4204;43.004;23.052;2023-06-26T07:57:06;11.97;;;10.40;;
8333;SDS011;4204;43.004;23.052;2023-06-26T07:59:35;12.40;;;11.20;;
8333;SDS011;4204;43.004;23.052;2023-06-26T08:02:03;12.07;;;10.77;;
8333;SDS011;4204;43.004;23.052;2023-06-26T08:04:31;12.23;;;10.93;;
8333;SDS011;4204;43.004;23.052;2023-06-26T08:07:00;14.37;;;11.27;;
8333;SDS011;4204;43.004;23.052;2023-06-26T08:09:29;12.33;;;11.10;;
8333;SDS011;4204;43.004;23.052;2023-06-26T08:11:58;11.83;;;10.47;;
8333;SDS011;4204;43.004;23.052;2023-06-26T08:14:27;11.50;;;10.30;;
8333;SDS011;4204;43.004;23.052;2023-06-26T08:16:55;12.03;;;10.70;;
8333;SDS011;4204;43.004;23.052;2023-06-26T08:19:25;11.70;;;10.53;;
8333;SDS011;4204;43.004;23.052;2023-06-26T08:21:53;15.23;;;10.53;;
8333;SDS011;4204;43.004;23.052;2023-06-26T08:24:21;11.83;;;9.90;;
8333;SDS011;4204;43.004;23.052;2023-06-26T08:26:48;10.50;;;9.40;;
8333;SDS011;4204;43.004;23.052;2023-06-26T08:29:16;12.07;;;10.00;;
8333;SDS011;4204;43.004;23.052;2023-06-26T08:31:45;10.90;;;9.83;;
8333;SDS011;4204;43.004;23.052;2023-06-26T08:34:13;11.83;;;10.13;;
8333;SDS011;4204;43.004;23.052;2023-06-26T08:36:41;12.80;;;10.63;;
8333;SDS011;4204;43.004;23.052;2023-06-26T08:39:09;12.43;;;11.17;;
8333;SDS011;4204;43.004;23.052;2023-06-26T08:41:37;11.27;;;10.17;;
8333;SDS011;4204;43.004;23.052;2023-06-26T08:44:04;10.77;;;9.67;;
8333;SDS011;4204;43.004;23.052;2023-06-26T08:46:32;11.00;;;9.90;;
8333;SDS011;4204;43.004;23.052;2023-06-26T08:49:08;11.10;;;10.00;;
8333;SDS011;4204;43.004;23.052;2023-06-26T08:51:41;10.50;;;9.40;;
8333;SDS011;4204;43.004;23.052;2023-06-26T08:54:17;11.13;;;9.97;;
8333;SDS011;4204;43.004;23.052;2023-06-26T08:56:50;11.40;;;10.20;;
8333;SDS011;4204;43.004;23.052;2023-06-26T08:59:19;11.27;;;10.17;;
8333;SDS011;4204;43.004;23.052;2023-06-26T09:01:48;11.60;;;10.40;;
8333;SDS011;4204;43.004;23.052;2023-06-26T09:04:17;11.00;;;9.90;;
8333;SDS011;4204;43.004;23.052;2023-06-26T09:06:44;10.53;;;9.23;;
8333;SDS011;4204;43.004;23.052;2023-06-26T09:09:12;11.10;;;10.00;;
8333;SDS011;4204;43.004;23.052;2023-06-26T09:11:40;10.37;;;9.13;;
8333;SDS011;4204;43.004;23.052;2023-06-26T09:14:08;11.17;;;9.30;;
8333;SDS011;4204;43.004;23.052;2023-06-26T09:16:40;11.03;;;9.87;;
8333;SDS011;4204;43.004;23.052;2023-06-26T09:19:09;12.40;;;9.70;;
8333;SDS011;4204;43.004;23.052;2023-06-26T09:21:39;10.73;;;8.90;;
8333;SDS011;4204;43.004;23.052;2023-06-26T09:24:08;10.67;;;9.60;;
8333;SDS011;4204;43.004;23.052;2023-06-26T09:26:37;10.50;;;9.40;;
8333;SDS011;4204;43.004;23.052;2023-06-26T09:29:05;10.57;;;9.33;;
8333;SDS011;4204;43.004;23.052;2023-06-26T09:31:33;9.43;;;8.53;;
8333;SDS011;4204;43.004;23.052;2023-06-26T09:34:04;11.10;;;10.00;;
8333;SDS011;4204;43.004;23.052;2023-06-26T09:36:32;9.17;;;8.27;;
8333;SDS011;4204;43.004;23.052;2023-06-26T09:39:03;9.40;;;8.33;;
8333;SDS011;4204;43.004;23.052;2023-06-26T09:41:34;11.37;;;8.47;;
8333;SDS011;4204;43.004;23.052;2023-06-26T09:44:04;10.60;;;8.87;;
8333;SDS011;4204;43.004;23.052;2023-06-26T09:46:33;9.60;;;8.50;;
8333;SDS011;4204;43.004;23.052;2023-06-26T09:49:01;11.37;;;9.67;;
8333;SDS011;4204;43.004;23.052;2023-06-26T09:51:31;10.23;;;9.23;;
8333;SDS011;4204;43.004;23.052;2023-06-26T09:53:59;11.10;;;9.80;;
8333;SDS011;4204;43.004;23.052;2023-06-26T09:56:29;9.63;;;8.63;;
8333;SDS011;4204;43.004;23.052;2023-06-26T09:58:57;10.90;;;9.80;;
8333;SDS011;4204;43.004;23.052;2023-06-26T10:01:30;10.70;;;9.60;;
8333;SDS011;4204;43.004;23.052;2023-06-26T10:03:58;12.07;;;10.10;;
8333;SDS011;4204;43.004;23.052;2023-06-26T10:06:31;12.10;;;10.07;;
8333;SDS011;4204;43.004;23.052;2023-06-26T10:09:01;10.73;;;9.40;;
8333;SDS011;4204;43.004;23.052;2023-06-26T10:11:32;10.83;;;8.80;;
8333;SDS011;4204;43.004;23.052;2023-06-26T10:14:04;9.20;;;7.97;;
8333;SDS011;4204;43.004;23.052;2023-06-26T10:16:34;8.80;;;7.90;;
8333;SDS011;4204;43.004;23.052;2023-06-26T10:19:06;8.17;;;7.37;;
8333;SDS011;4204;43.004;23.052;2023-06-26T10:21:37;8.53;;;7.50;;
8333;SDS011;4204;43.004;23.052;2023-06-26T10:24:06;9.50;;;7.83;;
8333;SDS011;4204;43.004;23.052;2023-06-26T10:26:40;9.23;;;7.90;;
8333;SDS011;4204;43.004;23.052;2023-06-26T10:29:11;10.80;;;8.87;;
8333;SDS011;4204;43.004;23.052;2023-06-26T10:31:40;11.60;;;9.13;;
8333;SDS011;4204;43.004;23.052;2023-06-26T10:34:11;9.57;;;8.57;;
8333;SDS011;4204;43.004;23.052;2023-06-26T10:36:55;10.60;;;7.90;;
8333;SDS011;4204;43.004;23.052;2023-06-26T10:39:26;8.77;;;7.73;;
8333;SDS011;4204;43.004;23.052;2023-06-26T10:41:55;10.23;;;7.90;;
8333;SDS011;4204;43.004;23.052;2023-06-26T10:44:40;8.43;;;7.63;;
8333;SDS011;4204;43.004;23.052;2023-06-26T10:47:09;8.90;;;7.97;;
8333;SDS011;4204;43.004;23.052;2023-06-26T10:49:37;8.73;;;7.43;;
8333;SDS011;4204;43.004;23.052;2023-06-26T10:52:07;9.47;;;8.03;;
8333;SDS011;4204;43.004;23.052;2023-06-26T10:54:35;10.13;;;8.20;;
8333;SDS011;4204;43.004;23.052;2023-06-26T10:57:07;8.43;;;7.60;;
8333;SDS011;4204;43.004;23.052;2023-06-26T10:59:34;8.60;;;7.77;;
8333;SDS011;4204;43.004;23.052;2023-06-26T11:02:07;8.87;;;7.50;;
8333;SDS011;4204;43.004;23.052;2023-06-26T11:04:37;9.63;;;8.23;;
8333;SDS011;4204;43.004;23.052;2023-06-26T11:07:19;9.53;;;8.10;;
8333;SDS011;4204;43.004;23.052;2023-06-26T11:09:55;8.63;;;7.70;;
8333;SDS011;4204;43.004;23.052;2023-06-26T11:12:38;9.10;;;7.90;;
8333;SDS011;4204;43.004;23.052;2023-06-26T11:15:08;9.67;;;8.67;;
8333;SDS011;4204;43.004;23.052;2023-06-26T11:17:37;9.33;;;7.60;;
8333;SDS011;4204;43.004;23.052;2023-06-26T11:20:07;9.07;;;8.23;;
8333;SDS011;4204;43.004;23.052;2023-06-26T11:22:39;8.77;;;7.10;;
8333;SDS011;4204;43.004;23.052;2023-06-26T11:25:08;8.30;;;7.27;;
8333;SDS011;4204;43.004;23.052;2023-06-26T11:27:41;7.63;;;6.83;;
8333;SDS011;4204;43.004;23.052;2023-06-26T11:30:10;8.33;;;7.43;;
8333;SDS011;4204;43.004;23.052;2023-06-26T11:32:49;8.27;;;7.33;;
8333;SDS011;4204;43.004;23.052;2023-06-26T11:35:21;7.37;;;6.53;;
8333;SDS011;4204;43.004;23.052;2023-06-26T11:37:56;8.37;;;7.10;;
8333;SDS011;4204;43.004;23.052;2023-06-26T11:40:26;8.63;;;7.30;;
8333;SDS011;4204;43.004;23.052;2023-06-26T11:43:00;7.70;;;6.90;;
8333;SDS011;4204;43.004;23.052;2023-06-26T11:45:29;7.93;;;6.63;;
8333;SDS011;4204;43.004;23.052;2023-06-26T11:48:00;7.47;;;6.33;;
8333;SDS011;4204;43.004;23.052;2023-06-26T11:50:28;7.67;;;6.53;;
8333;SDS011;4204;43.004;23.052;2023-06-26T11:52:56;7.30;;;6.60;;
8333;SDS011;4204;43.004;23.052;2023-06-26T11:55:25;7.60;;;6.70;;
8333;SDS011;4204;43.004;23.052;2023-06-26T11:57:53;9.60;;;7.20;;
8333;SDS011;4204;43.004;23.052;2023-06-26T12:00:25;7.43;;;6.70;;
8333;SDS011;4204;43.004;23.052;2023-06-26T12:02:53;6.93;;;6.23;;
8333;SDS011;4204;43.004;23.052;2023-06-26T12:05:21;7.30;;;6.60;;
8333;SDS011;4204;43.004;23.052;2023-06-26T12:07:49;7.53;;;6.10;;
8333;SDS011;4204;43.004;23.052;2023-06-26T12:10:18;7.27;;;6.60;;
8333;SDS011;4204;43.004;23.052;2023-06-26T12:12:48;9.77;;;6.87;;
8333;SDS011;4204;43.004;23.052;2023-06-26T12:15:16;7.43;;;6.70;;
8333;SDS011;4204;43.004;23.052;2023-06-26T12:17:45;7.40;;;6.70;;
8333;SDS011;4204;43.004;23.052;2023-06-26T12:20:19;7.23;;;6.53;;
8333;SDS011;4204;43.004;23.052;2023-06-26T12:22:48;7.37;;;6.33;;
8333;SDS011;4204;43.004;23.052;2023-06-26T12:25:21;6.90;;;6.20;;
8333;SDS011;4204;43.004;23.052;2023-06-26T12:27:50;8.57;;;6.60;;
8333;SDS011;4204;43.004;23.052;2023-06-26T12:30:18;8.37;;;7.17;;
8333;SDS011;4204;43.004;23.052;2023-06-26T12:32:47;6.87;;;6.17;;
8333;SDS011;4204;43.004;23.052;2023-06-26T12:35:15;8.23;;;6.97;;
8333;SDS011;4204;43.004;23.052;2023-06-26T12:37:43;7.10;;;6.40;;
8333;SDS011;4204;43.004;23.052;2023-06-26T12:40:18;7.53;;;6.37;;
8333;SDS011;4204;43.004;23.052;2023-06-26T12:42:48;9.80;;;7.63;;
8333;SDS011;4204;43.004;23.052;2023-06-26T12:45:15;8.37;;;6.90;;
8333;SDS011;4204;43.004;23.052;2023-06-26T12:47:43;8.10;;;6.33;;
8333;SDS011;4204;43.004;23.052;2023-06-26T12:50:12;7.47;;;6.77;;
8333;SDS011;4204;43.004;23.052;2023-06-26T12:52:40;6.77;;;6.17;;
8333;SDS011;4204;43.004;23.052;2023-06-26T12:55:08;7.17;;;6.07;;
8333;SDS011;4204;43.004;23.052;2023-06-26T12:57:36;8.87;;;6.60;;
8333;SDS011;4204;43.004;23.052;2023-06-26T13:00:04;7.93;;;6.77;;
8333;SDS011;4204;43.004;23.052;2023-06-26T13:02:33;11.30;;;6.87;;
8333;SDS011;4204;43.004;23.052;2023-06-26T13:05:01;7.50;;;6.80;;
8333;SDS011;4204;43.004;23.052;2023-06-26T13:07:30;8.83;;;7.13;;
8333;SDS011;4204;43.004;23.052;2023-06-26T13:09:57;6.80;;;6.10;;
8333;SDS011;4204;43.004;23.052;2023-06-26T13:12:25;7.77;;;5.70;;
8333;SDS011;4204;43.004;23.052;2023-06-26T13:14:53;6.23;;;5.63;;
8333;SDS011;4204;43.004;23.052;2023-06-26T13:17:21;6.70;;;6.00;;
8333;SDS011;4204;43.004;23.052;2023-06-26T13:19:48;5.83;;;5.33;;
8333;SDS011;4204;43.004;23.052;2023-06-26T13:22:16;6.53;;;5.93;;
8333;SDS011;4204;43.004;23.052;2023-06-26T13:24:45;6.63;;;5.70;;
8333;SDS011;4204;43.004;23.052;2023-06-26T13:27:13;6.73;;;5.90;;
8333;SDS011;4204;43.004;23.052;2023-06-26T13:29:42;6.83;;;5.43;;
8333;SDS011;4204;43.004;23.052;2023-06-26T13:32:09;7.17;;;5.83;;
8333;SDS011;4204;43.004;23.052;2023-06-26T13:34:37;5.77;;;5.17;;
8333;SDS011;4204;43.004;23.052;2023-06-26T13:37:05;7.73;;;5.43;;
8333;SDS011;4204;43.004;23.052;2023-06-26T13:39:33;8.17;;;5.80;;
8333;SDS011;4204;43.004;23.052;2023-06-26T13:42:02;6.33;;;5.73;;
8333;SDS011;4204;43.004;23.052;2023-06-26T13:44:30;7.23;;;6.53;;
8333;SDS011;4204;43.004;23.052;2023-06-26T13:46:58;6.87;;;6.13;;
8333;SDS011;4204;43.004;23.052;2023-06-26T13:49:25;7.83;;;6.33;;
8333;SDS011;4204;43.004;23.052;2023-06-26T13:51:53;6.07;;;5.57;;
8333;SDS011;4204;43.004;23.052;2023-06-26T13:54:21;6.40;;;5.80;;
8333;SDS011;4204;43.004;23.052;2023-06-26T13:56:49;6.70;;;6.10;;
8333;SDS011;4204;43.004;23.052;2023-06-26T13:59:18;7.23;;;6.00;;
8333;SDS011;4204;43.004;23.052;2023-06-26T14:01:46;6.17;;;5.57;;
8333;SDS011;4204;43.004;23.052;2023-06-26T14:04:14;5.77;;;5.27;;
8333;SDS011;4204;43.004;23.052;2023-06-26T14:06:41;8.03;;;5.60;;
8333;SDS011;4204;43.004;23.052;2023-06-26T14:09:11;24.50;;;7.87;;
8333;SDS011;4204;43.004;23.052;2023-06-26T14:11:39;9.73;;;6.70;;
8333;SDS011;4204;43.004;23.052;2023-06-26T14:14:07;7.10;;;5.47;;
8333;SDS011;4204;43.004;23.052;2023-06-26T14:16:36;6.67;;;5.83;;
8333;SDS011;4204;43.004;23.052;2023-06-26T14:19:06;7.03;;;5.80;;
8333;SDS011;4204;43.004;23.052;2023-06-26T14:21:33;6.40;;;5.70;;
8333;SDS011;4204;43.004;23.052;2023-06-26T14:24:01;6.57;;;5.70;;
8333;SDS011;4204;43.004;23.052;2023-06-26T14:26:29;7.20;;;6.50;;
8333;SDS011;4204;43.004;23.052;2023-06-26T14:28:58;6.93;;;6.23;;
8333;SDS011;4204;43.004;23.052;2023-06-26T14:31:26;7.13;;;6.43;;
8333;SDS011;4204;43.004;23.052;2023-06-26T14:33:55;72.37;;;14.43;;
8333;SDS011;4204;43.004;23.052;2023-06-26T14:36:25;24.60;;;8.30;;
8333;SDS011;4204;43.004;23.052;2023-06-26T14:38:53;7.10;;;6.20;;
8333;SDS011;4204;43.004;23.052;2023-06-26T14:41:21;6.73;;;5.73;;
8333;SDS011;4204;43.004;23.052;2023-06-26T14:43:49;7.13;;;6.20;;
8333;SDS011;4204;43.004;23.052;2023-06-26T14:46:17;11.80;;;6.60;;
8333;SDS011;4204;43.004;23.052;2023-06-26T14:48:45;6.87;;;6.03;;
8333;SDS011;4204;43.004;23.052;2023-06-26T14:51:14;7.97;;;6.70;;
8333;SDS011;4204;43.004;23.052;2023-06-26T14:53:42;6.63;;;6.03;;
8333;SDS011;4204;43.004;23.052;2023-06-26T14:56:10;6.37;;;5.70;;